sensor_id;sensor_type;location;lat;lon;timestamp;temperature;humidity
44433;DHT22;30136;50.600;4.608;2022-08-18T00:00:05;29.40;52.90
44433;DHT22;30136;50.600;4.608;2022-08-18T00:01:10;29.40;52.90
44433;DHT22;30136;50.600;4.608;2022-08-18T00:02:14;29.40;52.80
44433;DHT22;30136;50.600;4.608;2022-08-18T00:03:16;29.40;52.80
44433;DHT22;30136;50.600;4.608;2022-08-18T00:04:19;29.40;52.80
44433;DHT22;30136;50.600;4.608;2022-08-18T00:05:20;29.40;52.80
44433;DHT22;30136;50.600;4.608;2022-08-18T00:06:21;29.40;52.80
44433;DHT22;30136;50.600;4.608;2022-08-18T00:07:26;29.40;52.80
44433;DHT22;30136;50.600;4.608;2022-08-18T00:08:28;29.40;52.80
44433;DHT22;30136;50.600;4.608;2022-08-18T00:09:29;29.40;52.80
44433;DHT22;30136;50.600;4.608;2022-08-18T00:10:29;29.40;52.70
44433;DHT22;30136;50.600;4.608;2022-08-18T00:11:34;29.40;52.70
44433;DHT22;30136;50.600;4.608;2022-08-18T00:12:38;29.40;52.80
44433;DHT22;30136;50.600;4.608;2022-08-18T00:13:42;29.40;52.80
44433;DHT22;30136;50.600;4.608;2022-08-18T00:14:43;29.40;52.80
44433;DHT22;30136;50.600;4.608;2022-08-18T00:15:44;29.40;52.80
44433;DHT22;30136;50.600;4.608;2022-08-18T00:16:45;29.40;52.80
44433;DHT22;30136;50.600;4.608;2022-08-18T00:17:46;29.40;52.80
44433;DHT22;30136;50.600;4.608;2022-08-18T00:18:47;29.40;52.80
44433;DHT22;30136;50.600;4.608;2022-08-18T00:19:48;29.40;52.80
44433;DHT22;30136;50.600;4.608;2022-08-18T00:20:49;29.40;52.80
44433;DHT22;30136;50.600;4.608;2022-08-18T00:21:50;29.40;52.80
44433;DHT22;30136;50.600;4.608;2022-08-18T00:22:51;29.40;52.80
44433;DHT22;30136;50.600;4.608;2022-08-18T00:23:52;29.40;52.80
44433;DHT22;30136;50.600;4.608;2022-08-18T00:24:54;29.40;52.80
44433;DHT22;30136;50.600;4.608;2022-08-18T00:25:55;29.40;52.80
44433;DHT22;30136;50.600;4.608;2022-08-18T00:26:58;29.40;52.80
44433;DHT22;30136;50.600;4.608;2022-08-18T00:27:59;29.40;52.80
44433;DHT22;30136;50.600;4.608;2022-08-18T00:29:00;29.40;52.80
44433;DHT22;30136;50.600;4.608;2022-08-18T00:30:01;29.40;52.80
44433;DHT22;30136;50.600;4.608;2022-08-18T00:31:04;29.40;52.80
44433;DHT22;30136;50.600;4.608;2022-08-18T00:32:12;29.40;52.80
44433;DHT22;30136;50.600;4.608;2022-08-18T00:33:14;29.40;52.80
44433;DHT22;30136;50.600;4.608;2022-08-18T00:34:15;29.40;52.80
44433;DHT22;30136;50.600;4.608;2022-08-18T00:36:20;29.40;52.70
44433;DHT22;30136;50.600;4.608;2022-08-18T00:37:21;29.40;52.70
44433;DHT22;30136;50.600;4.608;2022-08-18T00:38:23;29.40;52.80
44433;DHT22;30136;50.600;4.608;2022-08-18T00:39:24;29.40;52.70
44433;DHT22;30136;50.600;4.608;2022-08-18T00:40:29;29.40;52.70
44433;DHT22;30136;50.600;4.608;2022-08-18T00:41:36;29.40;52.70
44433;DHT22;30136;50.600;4.608;2022-08-18T00:42:41;29.40;52.70
44433;DHT22;30136;50.600;4.608;2022-08-18T00:43:46;29.40;52.70
44433;DHT22;30136;50.600;4.608;2022-08-18T00:44:48;29.40;52.70
44433;DHT22;30136;50.600;4.608;2022-08-18T00:45:49;29.40;52.70
44433;DHT22;30136;50.600;4.608;2022-08-18T00:46:50;29.40;52.70
44433;DHT22;30136;50.600;4.608;2022-08-18T00:47:51;29.40;52.70
44433;DHT22;30136;50.600;4.608;2022-08-18T00:48:52;29.40;52.70
44433;DHT22;30136;50.600;4.608;2022-08-18T00:49:53;29.40;52.70
44433;DHT22;30136;50.600;4.608;2022-08-18T00:50:55;29.40;52.80
44433;DHT22;30136;50.600;4.608;2022-08-18T00:51:57;29.40;52.80
44433;DHT22;30136;50.600;4.608;2022-08-18T00:53:13;29.40;52.80
44433;DHT22;30136;50.600;4.608;2022-08-18T00:54:27;29.40;52.80
44433;DHT22;30136;50.600;4.608;2022-08-18T00:55:29;29.40;52.80
44433;DHT22;30136;50.600;4.608;2022-08-18T00:56:36;29.40;52.80
44433;DHT22;30136;50.600;4.608;2022-08-18T00:57:39;29.40;52.70
44433;DHT22;30136;50.600;4.608;2022-08-18T00:58:43;29.40;52.70
44433;DHT22;30136;50.600;4.608;2022-08-18T00:59:48;29.40;52.70
44433;DHT22;30136;50.600;4.608;2022-08-18T01:00:55;29.40;52.70
44433;DHT22;30136;50.600;4.608;2022-08-18T01:01:57;29.40;52.70
44433;DHT22;30136;50.600;4.608;2022-08-18T01:03:07;29.40;52.70
44433;DHT22;30136;50.600;4.608;2022-08-18T01:04:12;29.40;52.70
44433;DHT22;30136;50.600;4.608;2022-08-18T01:05:36;29.40;52.60
44433;DHT22;30136;50.600;4.608;2022-08-18T01:06:53;29.40;52.60
44433;DHT22;30136;50.600;4.608;2022-08-18T01:07:57;29.40;52.70
44433;DHT22;30136;50.600;4.608;2022-08-18T01:08:57;29.40;52.60
44433;DHT22;30136;50.600;4.608;2022-08-18T01:09:58;29.40;52.60
44433;DHT22;30136;50.600;4.608;2022-08-18T01:10:59;29.40;52.60
44433;DHT22;30136;50.600;4.608;2022-08-18T01:12:02;29.40;52.60
44433;DHT22;30136;50.600;4.608;2022-08-18T01:13:03;29.40;52.60
44433;DHT22;30136;50.600;4.608;2022-08-18T01:14:04;29.40;52.60
44433;DHT22;30136;50.600;4.608;2022-08-18T01:15:08;29.40;52.60
44433;DHT22;30136;50.600;4.608;2022-08-18T01:16:10;29.40;52.60
44433;DHT22;30136;50.600;4.608;2022-08-18T01:17:29;29.40;52.50
44433;DHT22;30136;50.600;4.608;2022-08-18T01:18:48;29.40;52.50
44433;DHT22;30136;50.600;4.608;2022-08-18T01:20:10;29.40;52.50
44433;DHT22;30136;50.600;4.608;2022-08-18T01:21:31;29.40;52.50
44433;DHT22;30136;50.600;4.608;2022-08-18T01:22:59;29.40;52.60
44433;DHT22;30136;50.600;4.608;2022-08-18T01:24:26;29.40;52.50
44433;DHT22;30136;50.600;4.608;2022-08-18T01:25:47;29.40;53.20
44433;DHT22;30136;50.600;4.608;2022-08-18T01:27:03;29.40;52.50
44433;DHT22;30136;50.600;4.608;2022-08-18T01:28:04;29.40;52.60
44433;DHT22;30136;50.600;4.608;2022-08-18T01:29:06;29.40;52.50
44433;DHT22;30136;50.600;4.608;2022-08-18T01:30:12;29.30;52.40
44433;DHT22;30136;50.600;4.608;2022-08-18T01:31:29;29.40;52.50
44433;DHT22;30136;50.600;4.608;2022-08-18T01:32:56;29.30;52.40
44433;DHT22;30136;50.600;4.608;2022-08-18T01:33:57;29.30;52.60
44433;DHT22;30136;50.600;4.608;2022-08-18T01:34:58;29.30;52.50
44433;DHT22;30136;50.600;4.608;2022-08-18T01:36:00;29.40;52.60
44433;DHT22;30136;50.600;4.608;2022-08-18T01:37:12;29.30;52.50
44433;DHT22;30136;50.600;4.608;2022-08-18T01:38:17;29.30;52.40
44433;DHT22;30136;50.600;4.608;2022-08-18T01:39:19;29.30;52.50
44433;DHT22;30136;50.600;4.608;2022-08-18T01:40:21;29.30;52.40
44433;DHT22;30136;50.600;4.608;2022-08-18T01:41:23;29.30;52.40
44433;DHT22;30136;50.600;4.608;2022-08-18T01:42:25;29.30;52.50
44433;DHT22;30136;50.600;4.608;2022-08-18T01:43:26;29.30;52.50
44433;DHT22;30136;50.600;4.608;2022-08-18T01:44:26;29.30;52.40
44433;DHT22;30136;50.600;4.608;2022-08-18T01:45:27;29.30;52.40
44433;DHT22;30136;50.600;4.608;2022-08-18T01:46:29;29.30;52.50
44433;DHT22;30136;50.600;4.608;2022-08-18T01:47:33;29.30;52.60
44433;DHT22;30136;50.600;4.608;2022-08-18T01:48:35;29.30;52.40
44433;DHT22;30136;50.600;4.608;2022-08-18T01:49:37;29.30;52.50
44433;DHT22;30136;50.600;4.608;2022-08-18T01:50:42;29.30;52.60
44433;DHT22;30136;50.600;4.608;2022-08-18T01:51:44;29.30;52.50
44433;DHT22;30136;50.600;4.608;2022-08-18T01:52:45;29.30;52.50
44433;DHT22;30136;50.600;4.608;2022-08-18T01:53:46;29.30;52.40
44433;DHT22;30136;50.600;4.608;2022-08-18T01:54:48;29.30;52.40
44433;DHT22;30136;50.600;4.608;2022-08-18T01:55:49;29.30;52.40
44433;DHT22;30136;50.600;4.608;2022-08-18T01:56:50;29.30;52.40
44433;DHT22;30136;50.600;4.608;2022-08-18T01:57:53;29.30;52.40
44433;DHT22;30136;50.600;4.608;2022-08-18T01:58:54;29.30;52.40
44433;DHT22;30136;50.600;4.608;2022-08-18T01:59:55;29.30;52.40
44433;DHT22;30136;50.600;4.608;2022-08-18T02:01:00;29.30;52.40
44433;DHT22;30136;50.600;4.608;2022-08-18T02:02:01;29.30;52.40
44433;DHT22;30136;50.600;4.608;2022-08-18T02:03:03;29.30;52.40
44433;DHT22;30136;50.600;4.608;2022-08-18T02:04:06;29.30;52.40
44433;DHT22;30136;50.600;4.608;2022-08-18T02:05:31;29.30;52.40
44433;DHT22;30136;50.600;4.608;2022-08-18T02:06:35;29.30;52.40
44433;DHT22;30136;50.600;4.608;2022-08-18T02:07:36;29.30;52.50
44433;DHT22;30136;50.600;4.608;2022-08-18T02:08:37;29.30;52.40
44433;DHT22;30136;50.600;4.608;2022-08-18T02:09:40;29.30;52.40
44433;DHT22;30136;50.600;4.608;2022-08-18T02:10:42;29.30;52.40
44433;DHT22;30136;50.600;4.608;2022-08-18T02:11:42;29.30;52.40
44433;DHT22;30136;50.600;4.608;2022-08-18T02:12:43;29.30;52.40
44433;DHT22;30136;50.600;4.608;2022-08-18T02:13:44;29.30;52.30
44433;DHT22;30136;50.600;4.608;2022-08-18T02:14:45;29.30;52.40
44433;DHT22;30136;50.600;4.608;2022-08-18T02:15:45;29.30;52.30
44433;DHT22;30136;50.600;4.608;2022-08-18T02:16:46;29.30;52.30
44433;DHT22;30136;50.600;4.608;2022-08-18T02:17:47;29.30;52.30
44433;DHT22;30136;50.600;4.608;2022-08-18T02:18:47;29.30;52.30
44433;DHT22;30136;50.600;4.608;2022-08-18T02:19:48;29.30;52.40
44433;DHT22;30136;50.600;4.608;2022-08-18T02:20:49;29.30;52.40
44433;DHT22;30136;50.600;4.608;2022-08-18T02:21:50;29.30;52.40
44433;DHT22;30136;50.600;4.608;2022-08-18T02:22:52;29.30;52.30
44433;DHT22;30136;50.600;4.608;2022-08-18T02:23:52;29.30;52.40
44433;DHT22;30136;50.600;4.608;2022-08-18T02:24:55;29.30;52.30
44433;DHT22;30136;50.600;4.608;2022-08-18T02:25:56;29.30;52.40
44433;DHT22;30136;50.600;4.608;2022-08-18T02:26:57;29.30;52.60
44433;DHT22;30136;50.600;4.608;2022-08-18T02:27:58;29.30;52.40
44433;DHT22;30136;50.600;4.608;2022-08-18T02:28:59;29.30;52.40
44433;DHT22;30136;50.600;4.608;2022-08-18T02:30:00;29.30;52.40
44433;DHT22;30136;50.600;4.608;2022-08-18T02:31:20;29.20;52.30
44433;DHT22;30136;50.600;4.608;2022-08-18T02:32:22;29.30;52.30
44433;DHT22;30136;50.600;4.608;2022-08-18T02:33:23;29.30;52.30
44433;DHT22;30136;50.600;4.608;2022-08-18T02:34:24;29.30;52.40
44433;DHT22;30136;50.600;4.608;2022-08-18T02:35:24;29.30;52.30
44433;DHT22;30136;50.600;4.608;2022-08-18T02:36:25;29.20;52.40
44433;DHT22;30136;50.600;4.608;2022-08-18T02:37:26;29.30;52.40
44433;DHT22;30136;50.600;4.608;2022-08-18T02:38:27;29.30;52.40
44433;DHT22;30136;50.600;4.608;2022-08-18T02:39:29;29.30;52.30
44433;DHT22;30136;50.600;4.608;2022-08-18T02:40:30;29.20;52.30
44433;DHT22;30136;50.600;4.608;2022-08-18T02:41:33;29.20;52.40
44433;DHT22;30136;50.600;4.608;2022-08-18T02:42:33;29.30;52.40
44433;DHT22;30136;50.600;4.608;2022-08-18T02:43:34;29.30;52.30
44433;DHT22;30136;50.600;4.608;2022-08-18T02:44:36;29.30;52.40
44433;DHT22;30136;50.600;4.608;2022-08-18T02:45:37;29.20;52.40
44433;DHT22;30136;50.600;4.608;2022-08-18T02:46:38;29.20;52.30
44433;DHT22;30136;50.600;4.608;2022-08-18T02:47:39;29.30;52.40
44433;DHT22;30136;50.600;4.608;2022-08-18T02:48:40;29.20;52.30
44433;DHT22;30136;50.600;4.608;2022-08-18T02:49:41;29.20;52.30
44433;DHT22;30136;50.600;4.608;2022-08-18T02:50:41;29.20;52.40
44433;DHT22;30136;50.600;4.608;2022-08-18T02:51:48;29.20;52.40
44433;DHT22;30136;50.600;4.608;2022-08-18T02:52:50;29.20;52.40
44433;DHT22;30136;50.600;4.608;2022-08-18T02:53:51;29.20;52.40
44433;DHT22;30136;50.600;4.608;2022-08-18T02:54:52;29.20;52.40
44433;DHT22;30136;50.600;4.608;2022-08-18T02:55:52;29.20;52.40
44433;DHT22;30136;50.600;4.608;2022-08-18T02:56:53;29.20;52.40
44433;DHT22;30136;50.600;4.608;2022-08-18T02:57:56;29.20;52.40
44433;DHT22;30136;50.600;4.608;2022-08-18T02:59:59;29.20;52.30
44433;DHT22;30136;50.600;4.608;2022-08-18T03:01:00;29.20;52.30
44433;DHT22;30136;50.600;4.608;2022-08-18T03:02:01;29.20;52.30
44433;DHT22;30136;50.600;4.608;2022-08-18T03:03:02;29.30;53.10
44433;DHT22;30136;50.600;4.608;2022-08-18T03:04:03;29.30;52.40
44433;DHT22;30136;50.600;4.608;2022-08-18T03:05:05;29.30;52.40
44433;DHT22;30136;50.600;4.608;2022-08-18T03:06:06;29.30;52.40
44433;DHT22;30136;50.600;4.608;2022-08-18T03:07:07;29.20;52.40
44433;DHT22;30136;50.600;4.608;2022-08-18T03:08:08;29.20;52.40
44433;DHT22;30136;50.600;4.608;2022-08-18T03:09:11;29.30;52.50
44433;DHT22;30136;50.600;4.608;2022-08-18T03:10:13;29.30;52.40
44433;DHT22;30136;50.600;4.608;2022-08-18T03:11:15;29.30;52.40
44433;DHT22;30136;50.600;4.608;2022-08-18T03:12:17;29.30;52.40
44433;DHT22;30136;50.600;4.608;2022-08-18T03:13:17;29.20;52.40
44433;DHT22;30136;50.600;4.608;2022-08-18T03:14:19;29.20;52.40
44433;DHT22;30136;50.600;4.608;2022-08-18T03:15:19;29.20;52.40
44433;DHT22;30136;50.600;4.608;2022-08-18T03:16:20;29.20;52.40
44433;DHT22;30136;50.600;4.608;2022-08-18T03:17:23;29.20;52.40
44433;DHT22;30136;50.600;4.608;2022-08-18T03:18:24;29.30;52.50
44433;DHT22;30136;50.600;4.608;2022-08-18T03:19:25;29.20;52.40
44433;DHT22;30136;50.600;4.608;2022-08-18T03:20:27;29.30;52.40
44433;DHT22;30136;50.600;4.608;2022-08-18T03:21:29;29.20;52.40
44433;DHT22;30136;50.600;4.608;2022-08-18T03:22:31;29.20;52.50
44433;DHT22;30136;50.600;4.608;2022-08-18T03:23:31;29.30;52.50
44433;DHT22;30136;50.600;4.608;2022-08-18T03:24:32;29.30;52.50
44433;DHT22;30136;50.600;4.608;2022-08-18T03:25:33;29.20;52.40
44433;DHT22;30136;50.600;4.608;2022-08-18T03:26:34;29.30;52.50
44433;DHT22;30136;50.600;4.608;2022-08-18T03:27:38;29.30;52.50
44433;DHT22;30136;50.600;4.608;2022-08-18T03:28:40;29.20;52.40
44433;DHT22;30136;50.600;4.608;2022-08-18T03:29:43;29.20;52.40
44433;DHT22;30136;50.600;4.608;2022-08-18T03:30:44;29.20;52.40
44433;DHT22;30136;50.600;4.608;2022-08-18T03:31:44;29.20;52.40
44433;DHT22;30136;50.600;4.608;2022-08-18T03:32:48;29.20;52.50
44433;DHT22;30136;50.600;4.608;2022-08-18T03:33:49;29.20;52.50
44433;DHT22;30136;50.600;4.608;2022-08-18T03:34:51;29.20;52.50
44433;DHT22;30136;50.600;4.608;2022-08-18T03:35:51;29.20;52.60
44433;DHT22;30136;50.600;4.608;2022-08-18T03:36:52;29.20;52.50
44433;DHT22;30136;50.600;4.608;2022-08-18T03:37:56;29.20;52.50
44433;DHT22;30136;50.600;4.608;2022-08-18T03:39:00;29.20;52.60
44433;DHT22;30136;50.600;4.608;2022-08-18T03:40:04;29.20;52.60
44433;DHT22;30136;50.600;4.608;2022-08-18T03:41:06;29.20;52.60
44433;DHT22;30136;50.600;4.608;2022-08-18T03:42:08;29.20;52.60
44433;DHT22;30136;50.600;4.608;2022-08-18T03:43:09;29.20;52.60
44433;DHT22;30136;50.600;4.608;2022-08-18T03:44:10;29.20;52.60
44433;DHT22;30136;50.600;4.608;2022-08-18T03:45:11;29.20;52.60
44433;DHT22;30136;50.600;4.608;2022-08-18T03:46:13;29.20;52.60
44433;DHT22;30136;50.600;4.608;2022-08-18T03:47:14;29.20;52.60
44433;DHT22;30136;50.600;4.608;2022-08-18T03:48:15;29.20;52.80
44433;DHT22;30136;50.600;4.608;2022-08-18T03:49:16;29.20;52.60
44433;DHT22;30136;50.600;4.608;2022-08-18T03:50:17;29.20;52.60
44433;DHT22;30136;50.600;4.608;2022-08-18T03:51:20;29.20;52.60
44433;DHT22;30136;50.600;4.608;2022-08-18T03:52:24;29.20;52.70
44433;DHT22;30136;50.600;4.608;2022-08-18T03:53:26;29.20;52.60
44433;DHT22;30136;50.600;4.608;2022-08-18T03:54:27;29.20;52.60
44433;DHT22;30136;50.600;4.608;2022-08-18T03:55:28;29.20;52.70
44433;DHT22;30136;50.600;4.608;2022-08-18T03:56:31;29.20;52.70
44433;DHT22;30136;50.600;4.608;2022-08-18T03:57:34;29.20;52.70
44433;DHT22;30136;50.600;4.608;2022-08-18T03:58:35;29.20;52.70
44433;DHT22;30136;50.600;4.608;2022-08-18T03:59:36;29.20;52.80
44433;DHT22;30136;50.600;4.608;2022-08-18T04:00:42;29.20;52.80
44433;DHT22;30136;50.600;4.608;2022-08-18T04:01:44;29.20;52.70
44433;DHT22;30136;50.600;4.608;2022-08-18T04:02:46;29.20;52.70
44433;DHT22;30136;50.600;4.608;2022-08-18T04:03:49;29.20;52.80
44433;DHT22;30136;50.600;4.608;2022-08-18T04:04:51;29.20;52.70
44433;DHT22;30136;50.600;4.608;2022-08-18T04:05:52;29.20;52.80
44433;DHT22;30136;50.600;4.608;2022-08-18T04:06:54;29.20;52.80
44433;DHT22;30136;50.600;4.608;2022-08-18T04:07:57;29.20;52.80
44433;DHT22;30136;50.600;4.608;2022-08-18T04:08:59;29.20;52.80
44433;DHT22;30136;50.600;4.608;2022-08-18T04:10:01;29.20;52.80
44433;DHT22;30136;50.600;4.608;2022-08-18T04:11:03;29.20;52.80
44433;DHT22;30136;50.600;4.608;2022-08-18T04:12:05;29.20;52.80
44433;DHT22;30136;50.600;4.608;2022-08-18T04:13:11;29.20;52.80
44433;DHT22;30136;50.600;4.608;2022-08-18T04:14:19;29.20;52.90
44433;DHT22;30136;50.600;4.608;2022-08-18T04:15:21;29.20;52.80
44433;DHT22;30136;50.600;4.608;2022-08-18T04:16:23;29.20;52.80
44433;DHT22;30136;50.600;4.608;2022-08-18T04:17:25;29.20;52.80
44433;DHT22;30136;50.600;4.608;2022-08-18T04:18:26;29.20;53.40
44433;DHT22;30136;50.600;4.608;2022-08-18T04:19:27;29.20;52.80
44433;DHT22;30136;50.600;4.608;2022-08-18T04:20:28;29.20;52.80
44433;DHT22;30136;50.600;4.608;2022-08-18T04:21:33;29.20;52.90
44433;DHT22;30136;50.600;4.608;2022-08-18T04:22:35;29.20;53.50
44433;DHT22;30136;50.600;4.608;2022-08-18T04:23:36;29.20;52.90
44433;DHT22;30136;50.600;4.608;2022-08-18T04:24:37;29.20;52.90
44433;DHT22;30136;50.600;4.608;2022-08-18T04:25:38;29.20;52.90
44433;DHT22;30136;50.600;4.608;2022-08-18T04:26:41;29.10;52.80
44433;DHT22;30136;50.600;4.608;2022-08-18T04:27:45;29.20;52.90
44433;DHT22;30136;50.600;4.608;2022-08-18T04:28:46;29.20;52.90
44433;DHT22;30136;50.600;4.608;2022-08-18T04:29:47;29.20;52.90
44433;DHT22;30136;50.600;4.608;2022-08-18T04:30:48;29.10;52.90
44433;DHT22;30136;50.600;4.608;2022-08-18T04:31:49;29.20;53.00
44433;DHT22;30136;50.600;4.608;2022-08-18T04:32:50;29.20;53.00
44433;DHT22;30136;50.600;4.608;2022-08-18T04:33:51;29.20;53.00
44433;DHT22;30136;50.600;4.608;2022-08-18T04:34:52;29.20;52.90
44433;DHT22;30136;50.600;4.608;2022-08-18T04:35:54;29.20;53.00
44433;DHT22;30136;50.600;4.608;2022-08-18T04:36:54;29.20;53.00
44433;DHT22;30136;50.600;4.608;2022-08-18T04:37:55;29.20;53.00
44433;DHT22;30136;50.600;4.608;2022-08-18T04:38:56;29.20;53.00
44433;DHT22;30136;50.600;4.608;2022-08-18T04:39:58;29.20;53.00
44433;DHT22;30136;50.600;4.608;2022-08-18T04:40:58;29.20;53.00
44433;DHT22;30136;50.600;4.608;2022-08-18T04:41:59;29.20;53.00
44433;DHT22;30136;50.600;4.608;2022-08-18T04:43:02;29.20;53.00
44433;DHT22;30136;50.600;4.608;2022-08-18T04:44:04;29.20;53.10
44433;DHT22;30136;50.600;4.608;2022-08-18T04:45:07;29.20;53.00
44433;DHT22;30136;50.600;4.608;2022-08-18T04:46:08;29.20;53.00
44433;DHT22;30136;50.600;4.608;2022-08-18T04:47:10;29.20;52.90
44433;DHT22;30136;50.600;4.608;2022-08-18T04:48:12;29.10;52.90
44433;DHT22;30136;50.600;4.608;2022-08-18T04:49:16;29.20;53.00
44433;DHT22;30136;50.600;4.608;2022-08-18T04:50:18;29.20;53.60
44433;DHT22;30136;50.600;4.608;2022-08-18T04:51:19;29.20;53.10
44433;DHT22;30136;50.600;4.608;2022-08-18T04:52:20;29.20;53.00
44433;DHT22;30136;50.600;4.608;2022-08-18T04:53:39;29.20;53.10
44433;DHT22;30136;50.600;4.608;2022-08-18T04:54:47;29.20;53.10
44433;DHT22;30136;50.600;4.608;2022-08-18T04:55:48;29.10;53.00
44433;DHT22;30136;50.600;4.608;2022-08-18T04:56:53;29.20;53.70
44433;DHT22;30136;50.600;4.608;2022-08-18T04:57:54;29.10;53.10
44433;DHT22;30136;50.600;4.608;2022-08-18T04:58:59;29.10;53.10
44433;DHT22;30136;50.600;4.608;2022-08-18T05:00:07;29.10;53.10
44433;DHT22;30136;50.600;4.608;2022-08-18T05:01:13;29.10;53.20
44433;DHT22;30136;50.600;4.608;2022-08-18T05:02:17;29.10;53.10
44433;DHT22;30136;50.600;4.608;2022-08-18T05:03:18;29.10;53.10
44433;DHT22;30136;50.600;4.608;2022-08-18T05:04:19;29.10;53.10
44433;DHT22;30136;50.600;4.608;2022-08-18T05:05:20;29.20;53.10
44433;DHT22;30136;50.600;4.608;2022-08-18T05:06:21;29.20;53.10
44433;DHT22;30136;50.600;4.608;2022-08-18T05:07:26;29.20;53.10
44433;DHT22;30136;50.600;4.608;2022-08-18T05:08:26;29.10;53.10
44433;DHT22;30136;50.600;4.608;2022-08-18T05:09:27;29.10;53.10
44433;DHT22;30136;50.600;4.608;2022-08-18T05:10:28;29.20;53.10
44433;DHT22;30136;50.600;4.608;2022-08-18T05:11:29;29.10;53.10
44433;DHT22;30136;50.600;4.608;2022-08-18T05:12:33;29.10;53.10
44433;DHT22;30136;50.600;4.608;2022-08-18T05:13:35;29.20;53.20
44433;DHT22;30136;50.600;4.608;2022-08-18T05:14:36;29.10;53.10
44433;DHT22;30136;50.600;4.608;2022-08-18T05:15:37;29.10;53.10
44433;DHT22;30136;50.600;4.608;2022-08-18T05:16:39;29.10;53.10
44433;DHT22;30136;50.600;4.608;2022-08-18T05:17:40;29.10;53.10
44433;DHT22;30136;50.600;4.608;2022-08-18T05:18:41;29.10;53.10
44433;DHT22;30136;50.600;4.608;2022-08-18T05:19:41;29.10;53.20
44433;DHT22;30136;50.600;4.608;2022-08-18T05:20:43;29.10;53.10
44433;DHT22;30136;50.600;4.608;2022-08-18T05:21:44;29.10;53.10
44433;DHT22;30136;50.600;4.608;2022-08-18T05:22:44;29.10;53.10
44433;DHT22;30136;50.600;4.608;2022-08-18T05:23:46;29.10;53.20
44433;DHT22;30136;50.600;4.608;2022-08-18T05:24:47;29.10;53.10
44433;DHT22;30136;50.600;4.608;2022-08-18T05:25:48;29.10;53.10
44433;DHT22;30136;50.600;4.608;2022-08-18T05:26:50;29.10;53.10
44433;DHT22;30136;50.600;4.608;2022-08-18T05:27:52;29.10;53.10
44433;DHT22;30136;50.600;4.608;2022-08-18T05:28:52;29.10;53.10
44433;DHT22;30136;50.600;4.608;2022-08-18T05:29:53;29.10;53.10
44433;DHT22;30136;50.600;4.608;2022-08-18T05:30:54;29.20;53.20
44433;DHT22;30136;50.600;4.608;2022-08-18T05:31:56;29.10;53.10
44433;DHT22;30136;50.600;4.608;2022-08-18T05:32:57;29.20;53.20
44433;DHT22;30136;50.600;4.608;2022-08-18T05:33:58;29.10;53.10
44433;DHT22;30136;50.600;4.608;2022-08-18T05:35:07;29.10;53.10
44433;DHT22;30136;50.600;4.608;2022-08-18T05:37:27;29.20;53.20
44433;DHT22;30136;50.600;4.608;2022-08-18T05:38:50;29.10;53.10
44433;DHT22;30136;50.600;4.608;2022-08-18T05:40:12;29.10;53.20
44433;DHT22;30136;50.600;4.608;2022-08-18T05:41:15;29.10;53.20
44433;DHT22;30136;50.600;4.608;2022-08-18T05:42:22;29.10;53.10
44433;DHT22;30136;50.600;4.608;2022-08-18T05:43:25;29.10;53.20
44433;DHT22;30136;50.600;4.608;2022-08-18T05:44:27;29.10;53.20
44433;DHT22;30136;50.600;4.608;2022-08-18T05:45:29;29.10;53.20
44433;DHT22;30136;50.600;4.608;2022-08-18T05:46:42;29.10;53.20
44433;DHT22;30136;50.600;4.608;2022-08-18T05:47:44;29.10;53.10
44433;DHT22;30136;50.600;4.608;2022-08-18T05:48:45;29.10;53.10
44433;DHT22;30136;50.600;4.608;2022-08-18T05:49:46;29.10;53.20
44433;DHT22;30136;50.600;4.608;2022-08-18T05:50:48;29.10;53.20
44433;DHT22;30136;50.600;4.608;2022-08-18T05:51:55;29.10;53.20
44433;DHT22;30136;50.600;4.608;2022-08-18T05:53:07;29.10;53.20
44433;DHT22;30136;50.600;4.608;2022-08-18T05:54:09;29.10;53.20
44433;DHT22;30136;50.600;4.608;2022-08-18T05:55:31;29.10;53.20
44433;DHT22;30136;50.600;4.608;2022-08-18T05:56:53;29.10;53.20
44433;DHT22;30136;50.600;4.608;2022-08-18T05:59:31;29.10;53.20
44433;DHT22;30136;50.600;4.608;2022-08-18T06:00:34;29.10;53.30
44433;DHT22;30136;50.600;4.608;2022-08-18T06:01:38;29.10;53.20
44433;DHT22;30136;50.600;4.608;2022-08-18T06:02:43;29.10;53.20
44433;DHT22;30136;50.600;4.608;2022-08-18T06:03:57;29.10;53.30
44433;DHT22;30136;50.600;4.608;2022-08-18T06:05:29;29.10;53.30
44433;DHT22;30136;50.600;4.608;2022-08-18T06:06:32;29.10;53.30
44433;DHT22;30136;50.600;4.608;2022-08-18T06:08:44;29.10;53.30
44433;DHT22;30136;50.600;4.608;2022-08-18T06:09:51;29.10;53.30
44433;DHT22;30136;50.600;4.608;2022-08-18T06:10:53;29.10;53.30
44433;DHT22;30136;50.600;4.608;2022-08-18T06:11:55;29.00;53.30
44433;DHT22;30136;50.600;4.608;2022-08-18T06:13:07;29.10;53.30
44433;DHT22;30136;50.600;4.608;2022-08-18T06:14:09;29.10;53.30
44433;DHT22;30136;50.600;4.608;2022-08-18T06:25:01;29.10;53.30
44433;DHT22;30136;50.600;4.608;2022-08-18T06:26:20;29.10;53.30
44433;DHT22;30136;50.600;4.608;2022-08-18T06:27:29;29.10;53.30
44433;DHT22;30136;50.600;4.608;2022-08-18T06:28:43;29.10;53.30
44433;DHT22;30136;50.600;4.608;2022-08-18T06:31:20;29.10;53.30
44433;DHT22;30136;50.600;4.608;2022-08-18T06:36:54;29.10;53.40
44433;DHT22;30136;50.600;4.608;2022-08-18T06:38:08;29.10;53.30
44433;DHT22;30136;50.600;4.608;2022-08-18T06:39:42;29.10;53.40
44433;DHT22;30136;50.600;4.608;2022-08-18T06:40:46;29.10;53.40
44433;DHT22;30136;50.600;4.608;2022-08-18T06:41:48;29.00;53.30
44433;DHT22;30136;50.600;4.608;2022-08-18T06:42:53;29.10;53.40
44433;DHT22;30136;50.600;4.608;2022-08-18T06:44:08;29.00;53.30
44433;DHT22;30136;50.600;4.608;2022-08-18T06:45:10;29.10;53.40
44433;DHT22;30136;50.600;4.608;2022-08-18T06:46:14;29.10;53.40
44433;DHT22;30136;50.600;4.608;2022-08-18T06:50:55;29.10;53.40
44433;DHT22;30136;50.600;4.608;2022-08-18T06:52:16;29.10;53.40
44433;DHT22;30136;50.600;4.608;2022-08-18T06:54:59;29.10;53.40
44433;DHT22;30136;50.600;4.608;2022-08-18T06:56:12;29.10;53.40
44433;DHT22;30136;50.600;4.608;2022-08-18T06:57:34;29.10;53.40
44433;DHT22;30136;50.600;4.608;2022-08-18T06:58:36;29.10;53.40
44433;DHT22;30136;50.600;4.608;2022-08-18T06:59:37;29.10;53.40
44433;DHT22;30136;50.600;4.608;2022-08-18T07:00:58;29.10;53.40
44433;DHT22;30136;50.600;4.608;2022-08-18T07:03:20;29.10;53.40
44433;DHT22;30136;50.600;4.608;2022-08-18T07:04:29;29.00;53.30
44433;DHT22;30136;50.600;4.608;2022-08-18T07:05:58;29.10;53.40
44433;DHT22;30136;50.600;4.608;2022-08-18T07:07:13;29.10;53.40
44433;DHT22;30136;50.600;4.608;2022-08-18T07:08:29;29.00;53.30
44433;DHT22;30136;50.600;4.608;2022-08-18T07:09:32;29.10;53.40
44433;DHT22;30136;50.600;4.608;2022-08-18T07:10:35;29.00;53.30
44433;DHT22;30136;50.600;4.608;2022-08-18T07:11:38;29.00;53.30